createdAt,value
2022-12-19T00:01:47.895Z,101059.40
2022-12-19T00:03:53.495Z,101057.17
2022-12-19T00:05:56.524Z,101059.66
2022-12-19T00:08:02.422Z,101060.54
2022-12-19T00:10:14.276Z,101060.04
2022-12-19T00:12:19.307Z,101058.77
2022-12-19T00:14:22.244Z,101061.28
2022-12-19T00:16:27.660Z,101066.35
2022-12-19T00:18:31.002Z,101068.37
2022-12-19T00:20:33.717Z,101072.96
2022-12-19T00:22:36.472Z,101066.79
2022-12-19T00:24:39.215Z,101065.96
2022-12-19T00:26:42.004Z,101059.99
2022-12-19T00:28:47.222Z,101063.86
2022-12-19T00:30:50.154Z,101062.05
2022-12-19T00:32:54.461Z,101056.95
2022-12-19T00:34:57.275Z,101050.61
2022-12-19T00:37:02.037Z,101050.25
2022-12-19T00:39:08.318Z,101050.80
2022-12-19T00:41:13.150Z,101046.40
2022-12-19T00:43:16.845Z,101047.55
2022-12-19T00:45:19.547Z,101052.37
2022-12-19T00:47:22.491Z,101054.51
2022-12-19T00:49:25.254Z,101055.96
2022-12-19T00:51:29.795Z,101059.68
2022-12-19T00:53:33.409Z,101058.14
2022-12-19T00:55:38.779Z,101059.13
2022-12-19T00:57:41.606Z,101060.73
2022-12-19T00:59:44.416Z,101061.20
2022-12-19T01:01:47.256Z,101059.09
2022-12-19T01:04:27.258Z,101053.09
2022-12-19T01:06:18.297Z,101056.61
2022-12-19T01:08:21.113Z,101059.11
2022-12-19T01:10:25.220Z,101058.61
2022-12-19T01:12:27.976Z,101043.08
2022-12-19T01:14:30.680Z,101037.83
2022-12-19T01:16:33.466Z,101030.13
2022-12-19T01:18:36.539Z,101017.15
2022-12-19T01:20:40.127Z,101014.35
2022-12-19T01:22:43.078Z,101009.12
2022-12-19T01:24:46.005Z,101000.55
2022-12-19T01:26:51.404Z,100997.55
2022-12-19T01:28:54.206Z,100994.19
2022-12-19T01:30:57.108Z,100989.63
2022-12-19T01:33:00.759Z,100984.71
2022-12-19T01:35:04.351Z,100985.10
2022-12-19T01:37:07.166Z,100977.48
2022-12-19T01:39:09.865Z,100979.05
2022-12-19T01:41:12.512Z,100978.58
2022-12-19T01:43:15.267Z,100973.89
2022-12-19T01:45:34.550Z,100974.45
2022-12-19T01:47:47.500Z,100972.77
2022-12-19T01:49:53.226Z,100971.43
2022-12-19T01:52:00.635Z,100969.81
2022-12-19T01:54:09.463Z,100968.61
2022-12-19T01:56:12.703Z,100969.65
2022-12-19T01:58:17.966Z,100963.58
2022-12-19T02:00:21.108Z,100970.52
2022-12-19T02:02:28.937Z,100972.13
2022-12-19T02:04:32.607Z,100976.80
2022-12-19T02:06:38.493Z,100976.77
2022-12-19T02:08:43.954Z,100974.23
2022-12-19T02:10:46.878Z,100970.88
2022-12-19T02:12:49.991Z,100957.57
2022-12-19T02:14:54.314Z,100942.70
2022-12-19T02:17:12.233Z,100944.13
2022-12-19T02:19:41.440Z,100953.46
2022-12-19T02:21:54.721Z,100959.46
2022-12-19T02:24:43.694Z,100958.48
2022-12-19T02:27:02.129Z,100949.86
2022-12-19T02:29:23.672Z,100955.65
2022-12-19T02:31:29.931Z,100950.73
2022-12-19T02:33:39.213Z,100945.69
2022-12-19T02:35:47.785Z,100947.16
2022-12-19T02:37:59.493Z,100944.11
2022-12-19T02:40:10.362Z,100933.61
2022-12-19T02:42:16.607Z,100928.80
2022-12-19T02:44:25.816Z,100926.36
2022-12-19T02:46:28.893Z,100922.42
2022-12-19T02:48:32.933Z,100925.80
2022-12-19T02:50:40.977Z,100926.35
2022-12-19T02:52:48.362Z,100923.73
2022-12-19T02:54:53.485Z,100922.69
2022-12-19T02:57:08.664Z,100921.79
2022-12-19T02:59:36.266Z,100920.56
2022-12-19T03:01:48.585Z,100919.07
2022-12-19T03:04:03.892Z,100920.74
2022-12-19T03:06:14.080Z,100917.52
2022-12-19T03:08:23.830Z,100918.66
2022-12-19T03:10:35.226Z,100916.34
2022-12-19T03:12:44.266Z,100917.32
2022-12-19T03:14:48.063Z,100915.81
2022-12-19T03:16:51.620Z,100922.95
2022-12-19T03:18:55.845Z,100920.47
2022-12-19T03:21:06.416Z,100919.27
2022-12-19T03:23:09.361Z,100921.88
2022-12-19T03:25:12.104Z,100924.19
2022-12-19T03:27:22.085Z,100921.52
2022-12-19T03:29:30.093Z,100921.65
2022-12-19T03:31:35.085Z,100920.80
2022-12-19T03:33:40.342Z,100925.02
2022-12-19T03:35:46.085Z,100923.12
2022-12-19T03:37:51.767Z,100929.71
2022-12-19T03:40:00.430Z,100920.78
2022-12-19T03:42:06.744Z,100922.90
2022-12-19T03:44:10.786Z,100925.75
2022-12-19T03:46:22.301Z,100930.83
2022-12-19T03:48:30.195Z,100936.73
2022-12-19T03:50:41.106Z,100940.72
2022-12-19T03:52:51.986Z,100929.55
2022-12-19T03:55:03.982Z,100919.88
2022-12-19T03:57:11.295Z,100912.94
2022-12-19T03:59:19.792Z,100919.98
2022-12-19T04:01:23.389Z,100919.17
2022-12-19T04:03:28.434Z,100916.91
2022-12-19T04:05:32.020Z,100910.90
2022-12-19T04:07:35.766Z,100909.05
2022-12-19T04:09:40.556Z,100909.42
2022-12-19T04:11:51.123Z,100898.20
2022-12-19T04:13:59.973Z,100904.52
2022-12-19T04:16:11.184Z,100900.92
2022-12-19T04:18:15.643Z,100900.91
2022-12-19T04:20:21.001Z,100899.73
2022-12-19T04:22:30.516Z,100902.54
2022-12-19T04:24:36.696Z,100913.58
2022-12-19T04:26:40.032Z,100918.45
2022-12-19T04:28:47.925Z,100923.23
2022-12-19T04:30:51.710Z,100921.92
2022-12-19T04:32:54.751Z,100916.73
2022-12-19T04:34:57.585Z,100911.34
2022-12-19T04:37:00.463Z,100911.88
2022-12-19T04:39:03.671Z,100906.23
2022-12-19T04:41:06.702Z,100904.84
2022-12-19T04:43:09.688Z,100901.46
2022-12-19T04:45:12.721Z,100905.59
2022-12-19T04:47:15.688Z,100896.79
2022-12-19T04:49:18.496Z,100895.02
2022-12-19T04:51:21.419Z,100900.34
2022-12-19T04:53:24.193Z,100901.73
2022-12-19T04:55:27.057Z,100898.50
2022-12-19T04:57:30.412Z,100892.27
2022-12-19T04:59:33.483Z,100886.64
2022-12-19T05:01:39.300Z,100886.79
2022-12-19T05:03:42.420Z,100885.21
2022-12-19T05:05:45.239Z,100888.15
2022-12-19T05:07:47.930Z,100891.23
2022-12-19T05:09:50.762Z,100886.96
2022-12-19T05:11:53.649Z,100880.64
2022-12-19T05:13:57.580Z,100881.27
2022-12-19T05:16:02.110Z,100880.51
2022-12-19T05:18:05.057Z,100882.80
2022-12-19T05:20:10.316Z,100885.48
2022-12-19T05:22:13.118Z,100889.45
2022-12-19T05:24:16.010Z,100886.27
2022-12-19T05:26:18.757Z,100889.87
2022-12-19T05:28:21.415Z,100894.55
2022-12-19T05:30:24.020Z,100901.77
2022-12-19T05:32:28.862Z,100901.80
2022-12-19T05:34:31.770Z,100908.56
2022-12-19T05:36:34.475Z,100907.63
2022-12-19T05:38:37.182Z,100901.69
2022-12-19T05:40:39.859Z,100894.33
2022-12-19T05:42:42.551Z,100891.12
2022-12-19T05:44:45.249Z,100895.66
2022-12-19T05:46:48.000Z,100895.73
2022-12-19T05:48:51.154Z,100902.05
2022-12-19T05:50:54.003Z,100909.36
2022-12-19T05:52:56.657Z,100909.58
2022-12-19T05:54:59.467Z,100907.31
2022-12-19T05:57:02.185Z,100902.23
2022-12-19T05:59:04.896Z,100896.14
2022-12-19T06:01:09.710Z,100899.56
2022-12-19T06:03:12.494Z,100896.30
2022-12-19T06:05:15.613Z,100902.45
2022-12-19T06:07:21.038Z,100899.02
2022-12-19T06:09:24.591Z,100896.68
2022-12-19T06:11:27.610Z,100901.31
2022-12-19T06:13:31.212Z,100908.02
2022-12-19T06:15:33.867Z,100910.50
2022-12-19T06:17:36.645Z,100912.38
2022-12-19T06:19:39.339Z,100917.25
2022-12-19T06:21:48.278Z,100920.77
2022-12-19T06:23:54.829Z,100917.76
2022-12-19T06:25:58.234Z,100921.30
2022-12-19T06:28:00.872Z,100920.45
2022-12-19T06:30:04.899Z,100912.39
2022-12-19T06:32:07.703Z,100913.25
2022-12-19T06:34:15.344Z,100912.17
2022-12-19T06:36:26.910Z,100913.55
2022-12-19T06:38:30.605Z,100915.14
2022-12-19T06:40:33.394Z,100916.27
2022-12-19T06:42:36.090Z,100914.94
2022-12-19T06:44:38.812Z,100918.55
2022-12-19T06:46:41.843Z,100920.11
2022-12-19T06:48:44.760Z,100917.22
2022-12-19T06:50:47.531Z,100914.13
2022-12-19T06:52:50.196Z,100916.19
2022-12-19T06:54:52.824Z,100925.98
2022-12-19T06:56:55.488Z,100932.84
2022-12-19T06:58:58.137Z,100939.31
2022-12-19T07:01:01.005Z,100936.25
2022-12-19T07:03:09.511Z,100939.90
2022-12-19T07:05:12.995Z,100939.48
2022-12-19T07:07:15.783Z,100944.39
2022-12-19T07:09:18.484Z,100945.19
2022-12-19T07:11:21.224Z,100940.36
2022-12-19T07:13:24.076Z,100944.67
2022-12-19T07:15:27.336Z,100950.16
2022-12-19T07:17:30.385Z,100947.59
2022-12-19T07:19:34.204Z,100949.61
2022-12-19T07:21:37.882Z,100952.45
2022-12-19T07:23:41.111Z,100952.29
2022-12-19T07:25:43.843Z,100954.89
2022-12-19T07:27:47.152Z,100959.21
2022-12-19T07:29:50.497Z,100962.34
2022-12-19T07:31:53.578Z,100968.00
2022-12-19T07:33:56.236Z,100968.73
2022-12-19T07:35:58.872Z,100971.95
2022-12-19T07:38:05.526Z,100966.09
2022-12-19T07:40:10.090Z,100964.06
2022-12-19T07:42:12.678Z,100969.33
2022-12-19T07:44:15.346Z,100979.50
2022-12-19T07:46:18.167Z,100980.35
2022-12-19T07:48:20.855Z,100980.86
2022-12-19T07:50:23.488Z,100974.69
2022-12-19T07:52:26.415Z,100979.48
2022-12-19T07:54:29.044Z,100977.94
2022-12-19T07:56:31.654Z,100979.16
2022-12-19T07:58:35.150Z,100977.41
2022-12-19T08:00:37.990Z,100976.27
2022-12-19T08:02:40.887Z,100986.83
2022-12-19T08:04:43.659Z,100990.41
2022-12-19T08:06:46.301Z,100996.45
2022-12-19T08:08:48.989Z,100995.39
2022-12-19T08:10:51.662Z,100997.56
2022-12-19T08:12:54.588Z,101001.76
2022-12-19T08:14:57.593Z,101001.80
2022-12-19T08:19:27.327Z,100997.45
2022-12-19T08:21:30.469Z,100997.57
2022-12-19T08:23:33.828Z,101001.42
2022-12-19T08:25:36.626Z,100994.95
2022-12-19T08:27:39.515Z,100996.36
2022-12-19T08:29:42.446Z,100995.52
2022-12-19T08:31:45.390Z,101001.82
2022-12-19T08:33:48.290Z,101004.67
2022-12-19T08:35:51.075Z,101005.27
2022-12-19T08:37:53.781Z,101001.98
2022-12-19T08:39:56.527Z,101015.58
2022-12-19T08:41:59.284Z,101019.55
2022-12-19T08:44:02.186Z,101028.39
2022-12-19T08:46:06.230Z,101026.38
2022-12-19T08:48:08.958Z,101027.11
2022-12-19T08:50:11.971Z,101028.49
2022-12-19T08:52:15.647Z,101030.31
2022-12-19T08:54:18.494Z,101033.36
2022-12-19T08:56:22.315Z,101028.77
2022-12-19T08:58:26.072Z,101028.11
2022-12-19T09:00:28.796Z,101018.73
2022-12-19T09:02:31.772Z,101019.29
2022-12-19T09:05:58.290Z,101018.71
2022-12-19T09:06:57.219Z,101010.70
2022-12-19T09:09:00.609Z,101012.11
2022-12-19T09:11:06.027Z,101020.92
2022-12-19T09:13:08.658Z,101027.27
2022-12-19T09:15:11.564Z,101025.49
2022-12-19T09:17:14.741Z,101025.05
2022-12-19T09:19:17.590Z,101027.10
2022-12-19T09:21:22.744Z,101025.95
2022-12-19T09:23:26.139Z,101026.45
2022-12-19T09:25:28.890Z,101023.58
2022-12-19T09:27:38.460Z,101029.55
2022-12-19T09:29:54.190Z,101033.11
2022-12-19T09:31:57.188Z,101037.98
2022-12-19T09:33:59.988Z,101043.23
2022-12-19T09:36:03.592Z,101040.35
2022-12-19T09:38:06.347Z,101036.14
2022-12-19T09:40:16.064Z,101034.41
2022-12-19T09:42:39.407Z,101027.88
2022-12-19T09:45:03.256Z,101016.05
2022-12-19T09:47:12.538Z,101012.81
2022-12-19T09:49:18.794Z,101016.47
2022-12-19T09:51:32.181Z,101021.23
2022-12-19T09:53:40.926Z,101024.75
2022-12-19T09:55:44.530Z,101027.34
2022-12-19T09:57:54.997Z,101026.09
2022-12-19T10:00:04.034Z,101023.23
2022-12-19T10:02:24.131Z,101017.77
2022-12-19T10:04:30.968Z,101018.42
2022-12-19T10:07:11.070Z,101020.20
2022-12-19T10:11:09.851Z,101025.15
2022-12-19T10:12:43.779Z,101037.74
2022-12-19T10:14:20.336Z,101044.66
2022-12-19T10:16:30.378Z,101048.23
2022-12-19T10:18:47.504Z,101049.57
2022-12-19T10:21:03.432Z,101049.21
2022-12-19T10:23:30.837Z,101050.76
2022-12-19T10:25:56.606Z,101056.21
2022-12-19T10:28:11.636Z,101053.65
2022-12-19T10:30:16.540Z,101052.59
2022-12-19T10:32:26.914Z,101047.50
2022-12-19T10:34:40.666Z,101040.39
2022-12-19T10:37:14.781Z,101039.55
2022-12-19T10:39:17.070Z,101034.36
2022-12-19T10:41:22.505Z,101023.95
2022-12-19T10:43:40.821Z,101016.17
2022-12-19T10:45:51.720Z,101018.01
2022-12-19T10:47:57.201Z,101013.69
2022-12-19T10:50:09.016Z,101012.06
2022-12-19T10:52:12.814Z,101013.02
2022-12-19T10:54:15.552Z,101015.42
2022-12-19T10:56:25.278Z,101015.29
2022-12-19T10:58:33.544Z,101014.50
2022-12-19T11:00:36.436Z,101006.52
2022-12-19T11:02:44.593Z,101000.39
2022-12-19T11:04:47.924Z,101005.80
2022-12-19T11:07:03.721Z,101006.45
2022-12-19T11:09:26.693Z,101005.44
2022-12-19T11:13:11.960Z,101003.83
2022-12-19T11:19:02.506Z,100999.42
2022-12-19T11:23:20.350Z,101000.08
2022-12-19T11:29:15.011Z,101001.23
2022-12-19T11:29:38.524Z,100991.20
2022-12-19T11:30:05.417Z,100995.80
2022-12-19T11:30:42.809Z,100973.66
2022-12-19T11:30:42.999Z,100981.28
2022-12-19T11:33:54.973Z,100960.09
2022-12-19T11:36:00.123Z,100949.91
2022-12-19T11:38:05.160Z,100957.70
2022-12-19T11:40:17.638Z,100960.26
2022-12-19T11:42:25.805Z,100951.33
2022-12-19T11:44:35.389Z,100948.48
2022-12-19T11:46:42.766Z,100949.56
2022-12-19T11:48:51.644Z,100947.42
2022-12-19T11:51:01.049Z,100937.90
2022-12-19T11:53:18.921Z,100933.12
2022-12-19T11:55:25.531Z,100920.39
2022-12-19T11:57:28.491Z,100918.25
2022-12-19T11:59:35.810Z,100917.73
2022-12-19T12:01:59.179Z,100921.55
2022-12-19T12:04:17.157Z,100912.78
2022-12-19T12:06:19.961Z,100907.94
2022-12-19T12:11:40.026Z,100912.91
2022-12-19T12:19:24.556Z,100918.55
2022-12-19T12:24:23.203Z,100909.05
2022-12-19T12:30:28.423Z,100914.82
2022-12-19T12:31:09.986Z,100910.19
2022-12-19T12:31:31.135Z,100904.77
2022-12-19T12:31:49.434Z,100899.83
2022-12-19T12:31:52.362Z,100890.66
2022-12-19T12:32:04.208Z,100888.77
2022-12-19T12:35:40.501Z,100895.76
2022-12-19T12:37:18.855Z,100906.11
2022-12-19T12:40:19.584Z,100898.39
2022-12-19T12:42:42.131Z,100892.40
2022-12-19T12:44:47.748Z,100901.05
2022-12-19T12:46:58.832Z,100891.55
2022-12-19T12:49:04.394Z,100879.79
2022-12-19T12:51:08.770Z,100878.10
2022-12-19T12:53:15.349Z,100883.39
2022-12-19T12:55:24.430Z,100881.38
2022-12-19T12:57:37.730Z,100879.34
2022-12-19T12:59:45.639Z,100877.06
2022-12-19T13:01:53.010Z,100877.16
2022-12-19T13:04:01.845Z,100879.46
2022-12-19T13:06:20.425Z,100879.53
2022-12-19T13:08:36.512Z,100886.43
2022-12-19T13:10:54.291Z,100886.39
2022-12-19T13:12:59.859Z,100885.83
2022-12-19T13:15:34.075Z,100886.73
2022-12-19T13:18:08.418Z,100877.66
2022-12-19T13:20:42.154Z,100878.77
2022-12-19T13:23:01.234Z,100880.23
2022-12-19T13:25:45.164Z,100881.94
2022-12-19T13:27:49.564Z,100883.80
2022-12-19T13:30:01.389Z,100883.38
2022-12-19T13:32:14.221Z,100884.13
2022-12-19T13:34:19.841Z,100881.91
2022-12-19T13:39:51.026Z,100882.48
2022-12-19T13:40:00.500Z,100885.23
2022-12-19T13:42:09.420Z,100893.72
2022-12-19T13:44:13.171Z,100897.79
2022-12-19T13:46:25.658Z,100894.98
2022-12-19T13:48:32.813Z,100889.42
2022-12-19T13:50:38.794Z,100881.54
2022-12-19T13:52:47.013Z,100879.26
2022-12-19T13:54:51.253Z,100882.28
2022-12-19T13:56:55.107Z,100875.59
2022-12-19T13:59:01.710Z,100882.20
2022-12-19T14:01:20.820Z,100881.83
2022-12-19T14:03:33.900Z,100878.13
2022-12-19T14:06:17.160Z,100874.55
2022-12-19T14:08:08.289Z,100879.45
2022-12-19T14:11:35.002Z,100884.20
2022-12-19T14:14:01.155Z,100891.95
2022-12-19T14:15:22.187Z,100894.27
2022-12-19T14:17:24.780Z,100890.52
2022-12-19T14:19:27.883Z,100888.36
2022-12-19T14:22:05.900Z,100885.83
2022-12-19T14:24:07.145Z,100882.07
2022-12-19T14:28:24.713Z,100874.83
2022-12-19T14:28:54.382Z,100871.83
2022-12-19T14:31:01.627Z,100876.27
2022-12-19T14:33:41.970Z,100870.94
2022-12-19T14:36:08.662Z,100884.22
2022-12-19T14:39:24.038Z,100885.35
2022-12-19T14:40:25.990Z,100877.55
2022-12-19T14:43:55.358Z,100873.52
2022-12-19T14:52:27.843Z,100865.04
2022-12-19T14:53:08.700Z,100854.55
2022-12-19T14:54:02.813Z,100854.63
2022-12-19T14:54:28.279Z,100846.63
2022-12-19T14:56:09.363Z,100851.70
2022-12-19T14:58:54.153Z,100851.27
2022-12-19T15:01:08.226Z,100846.33
2022-12-19T15:02:49.099Z,100843.11
2022-12-19T15:05:01.871Z,100843.23
2022-12-19T15:07:11.668Z,100836.19
2022-12-19T15:11:09.050Z,100842.48
2022-12-19T15:11:53.630Z,100848.84
2022-12-19T15:14:55.132Z,100852.90
2022-12-19T15:16:29.443Z,100853.73
2022-12-19T15:18:39.741Z,100854.60
2022-12-19T15:20:42.542Z,100850.65
2022-12-19T15:22:45.706Z,100851.61
2022-12-19T15:24:48.906Z,100853.77
2022-12-19T15:26:53.121Z,100858.25
2022-12-19T15:28:57.736Z,100870.20
2022-12-19T15:31:06.171Z,100869.81
2022-12-19T15:33:13.890Z,100867.46
2022-12-19T15:35:17.971Z,100866.10
2022-12-19T15:37:20.592Z,100872.58
2022-12-19T15:39:23.916Z,100875.73
2022-12-19T15:41:26.877Z,100879.77
2022-12-19T15:44:02.497Z,100876.73
2022-12-19T15:45:58.360Z,100877.88
2022-12-19T15:48:01.113Z,100873.19
2022-12-19T15:50:16.770Z,100881.73
2022-12-19T15:52:20.837Z,100887.42
2022-12-19T15:56:52.033Z,100874.61
2022-12-19T15:58:57.784Z,100877.95
2022-12-19T16:01:03.200Z,100886.77
2022-12-19T16:03:23.238Z,100888.77
2022-12-19T16:05:27.524Z,100880.23
2022-12-19T16:07:30.435Z,100875.55
2022-12-19T16:09:33.364Z,100886.09
2022-12-19T16:11:37.347Z,100894.27
2022-12-19T16:13:40.925Z,100892.04
2022-12-19T16:15:43.841Z,100884.96
2022-12-19T16:17:46.866Z,100879.48
2022-12-19T16:19:50.561Z,100875.09
2022-12-19T16:21:53.966Z,100873.53
2022-12-19T16:23:56.718Z,100870.01
2022-12-19T16:25:59.703Z,100871.64
2022-12-19T16:28:04.151Z,100875.59
2022-12-19T16:30:19.175Z,100876.86
2022-12-19T16:32:22.796Z,100875.89
2022-12-19T16:34:25.803Z,100867.86
2022-12-19T16:36:28.718Z,100860.64
2022-12-19T16:38:32.153Z,100849.40
2022-12-19T16:40:35.234Z,100844.90
2022-12-19T16:42:40.585Z,100844.02
2022-12-19T16:44:45.111Z,100849.53
2022-12-19T16:46:51.340Z,100848.39
2022-12-19T16:48:54.671Z,100842.70
2022-12-19T16:50:58.611Z,100840.13
2022-12-19T16:53:01.447Z,100836.52
2022-12-19T16:55:05.083Z,100832.72
2022-12-19T16:57:18.031Z,100827.85
2022-12-19T16:59:25.660Z,100824.98
2022-12-19T17:01:29.170Z,100815.40
2022-12-19T17:03:38.394Z,100815.09
2022-12-19T17:05:41.387Z,100806.38
2022-12-19T17:07:44.535Z,100800.80
2022-12-19T17:09:47.403Z,100800.25
2022-12-19T17:11:52.990Z,100798.44
2022-12-19T17:14:01.902Z,100798.98
2022-12-19T17:16:09.062Z,100806.04
2022-12-19T17:18:20.301Z,100812.40
2022-12-19T17:20:26.705Z,100822.93
2022-12-19T17:22:29.479Z,100825.64
2022-12-19T17:24:32.359Z,100821.29
2022-12-19T17:26:35.169Z,100821.27
2022-12-19T17:28:37.935Z,100823.65
2022-12-19T17:30:42.759Z,100822.89
2022-12-19T17:32:48.296Z,100824.33
2022-12-19T17:34:51.423Z,100826.16
2022-12-19T17:36:54.584Z,100822.80
2022-12-19T17:38:57.493Z,100825.91
2022-12-19T17:41:00.288Z,100830.88
2022-12-19T17:43:03.185Z,100840.18
2022-12-19T17:45:08.799Z,100836.41
2022-12-19T17:47:14.275Z,100837.82
2022-12-19T17:49:21.056Z,100828.04
2022-12-19T17:51:23.831Z,100828.20
2022-12-19T17:53:26.913Z,100825.92
2022-12-19T17:55:30.845Z,100822.64
2022-12-19T17:57:33.879Z,100824.52
2022-12-19T17:59:36.841Z,100822.68
2022-12-19T18:01:40.993Z,100819.63
2022-12-19T18:03:45.137Z,100817.58
2022-12-19T18:05:50.262Z,100813.77
2022-12-19T18:07:53.720Z,100808.29
2022-12-19T18:09:57.538Z,100804.55
2022-12-19T18:12:01.842Z,100802.70
2022-12-19T18:14:04.957Z,100804.54
2022-12-19T18:16:17.504Z,100801.27
2022-12-19T18:18:27.864Z,100807.58
2022-12-19T18:20:32.988Z,100809.30
2022-12-19T18:22:36.087Z,100812.67
2022-12-19T18:24:39.329Z,100811.18
2022-12-19T18:26:43.565Z,100805.46
2022-12-19T18:28:46.505Z,100803.20
2022-12-19T18:30:58.135Z,100804.57
2022-12-19T18:33:02.840Z,100798.45
2022-12-19T18:35:13.004Z,100802.19
2022-12-19T18:37:17.627Z,100804.92
2022-12-19T18:39:24.718Z,100807.45
2022-12-19T18:41:27.600Z,100802.43
2022-12-19T18:43:30.935Z,100794.61
2022-12-19T18:45:37.941Z,100795.18
2022-12-19T18:47:41.087Z,100794.95
2022-12-19T18:49:44.656Z,100787.73
2022-12-19T18:51:47.564Z,100785.84
2022-12-19T18:53:50.879Z,100788.30
2022-12-19T18:55:53.896Z,100784.70
2022-12-19T18:57:56.609Z,100785.34
2022-12-19T18:59:59.401Z,100773.27
2022-12-19T19:02:02.843Z,100777.70
2022-12-19T19:04:06.241Z,100780.79
2022-12-19T19:06:26.045Z,100776.63
2022-12-19T19:08:34.472Z,100777.85
2022-12-19T19:10:47.455Z,100777.39
2022-12-19T19:12:55.768Z,100772.86
2022-12-19T19:14:58.828Z,100771.46
2022-12-19T19:17:05.923Z,100769.25
2022-12-19T19:19:14.038Z,100768.34
2022-12-19T19:21:17.305Z,100769.14
2022-12-19T19:23:22.388Z,100770.20
2022-12-19T19:25:26.093Z,100767.11
2022-12-19T19:27:30.108Z,100762.84
2022-12-19T19:29:32.932Z,100768.37
2022-12-19T19:31:38.681Z,100772.20
2022-12-19T19:33:44.593Z,100776.83
2022-12-19T19:35:52.564Z,100773.59
2022-12-19T19:37:59.070Z,100781.48
2022-12-19T19:40:01.978Z,100783.05
2022-12-19T19:42:05.055Z,100780.83
2022-12-19T19:44:07.773Z,100777.64
2022-12-19T19:46:10.791Z,100774.23
2022-12-19T19:48:13.832Z,100774.73
2022-12-19T19:50:18.102Z,100773.05
2022-12-19T19:52:21.878Z,100763.41
2022-12-19T19:54:25.670Z,100764.06
2022-12-19T19:56:28.774Z,100763.80
2022-12-19T19:58:32.156Z,100765.65
2022-12-19T20:00:35.733Z,100759.26
2022-12-19T20:02:39.858Z,100759.38
2022-12-19T20:04:43.537Z,100761.69
2022-12-19T20:06:46.329Z,100762.91
2022-12-19T20:08:51.298Z,100758.92
2022-12-19T20:10:56.094Z,100755.80
2022-12-19T20:12:59.555Z,100756.77
2022-12-19T20:15:03.467Z,100756.58
2022-12-19T20:17:06.442Z,100756.21
2022-12-19T20:19:09.910Z,100757.23
2022-12-19T20:21:13.949Z,100752.66
2022-12-19T20:23:17.344Z,100750.83
2022-12-19T20:25:20.515Z,100750.81
2022-12-19T20:27:23.943Z,100757.66
2022-12-19T20:29:27.586Z,100764.54
2022-12-19T20:31:31.951Z,100771.96
2022-12-19T20:33:36.992Z,100775.61
2022-12-19T20:35:40.593Z,100773.25
2022-12-19T20:37:45.202Z,100767.64
2022-12-19T20:39:48.534Z,100761.22
2022-12-19T20:41:52.277Z,100754.20
2022-12-19T20:43:55.835Z,100759.02
2022-12-19T20:46:01.687Z,100751.19
2022-12-19T20:48:05.358Z,100752.17
2022-12-19T20:50:09.669Z,100744.37
2022-12-19T20:52:12.566Z,100737.11
2022-12-19T20:54:15.475Z,100730.27
2022-12-19T20:56:19.329Z,100732.03
2022-12-19T20:58:22.221Z,100721.88
2022-12-19T21:00:25.135Z,100722.43
2022-12-19T21:02:27.990Z,100715.31
2022-12-19T21:04:31.390Z,100712.21
2022-12-19T21:06:34.293Z,100709.26
2022-12-19T21:08:37.452Z,100714.09
2022-12-19T21:10:40.221Z,100710.28
2022-12-19T21:12:47.538Z,100717.77
2022-12-19T21:14:50.721Z,100728.15
2022-12-19T21:16:53.363Z,100738.10
2022-12-19T21:18:56.071Z,100743.51
2022-12-19T21:20:59.019Z,100741.55
2022-12-19T21:23:02.310Z,100741.91
2022-12-19T21:25:06.098Z,100742.61
2022-12-19T21:27:08.751Z,100738.98
2022-12-19T21:29:11.477Z,100741.52
2022-12-19T21:31:17.119Z,100740.68
2022-12-19T21:33:19.867Z,100742.05
2022-12-19T21:35:22.760Z,100738.86
2022-12-19T21:37:25.377Z,100734.60
2022-12-19T21:39:28.028Z,100740.33
2022-12-19T21:41:31.426Z,100736.82
2022-12-19T21:43:36.319Z,100739.80
2022-12-19T21:45:39.261Z,100730.31
2022-12-19T21:47:41.933Z,100710.04
2022-12-19T21:49:44.743Z,100698.55
2022-12-19T21:51:47.583Z,100705.95
2022-12-19T21:53:53.452Z,100717.45
2022-12-19T21:56:03.357Z,100717.27
2022-12-19T21:58:05.969Z,100720.87
2022-12-19T22:00:11.938Z,100719.05
2022-12-19T22:02:14.627Z,100710.08
2022-12-19T22:04:19.924Z,100707.52
2022-12-19T22:06:28.260Z,100710.66
2022-12-19T22:08:31.554Z,100708.61
2022-12-19T22:10:34.219Z,100709.41
2022-12-19T22:12:36.841Z,100708.71
2022-12-19T22:14:40.005Z,100707.95
2022-12-19T22:16:43.635Z,100704.55
2022-12-19T22:18:46.749Z,100702.27
2022-12-19T22:20:49.643Z,100691.65
2022-12-19T22:22:52.463Z,100689.16
2022-12-19T22:24:55.069Z,100688.59
2022-12-19T22:26:57.714Z,100697.45
2022-12-19T22:29:00.457Z,100703.27
2022-12-19T22:31:03.613Z,100706.58
2022-12-19T22:33:06.279Z,100705.80
2022-12-19T22:35:09.673Z,100701.98
2022-12-19T22:37:12.320Z,100689.03
2022-12-19T22:39:17.229Z,100684.84
2022-12-19T22:41:21.700Z,100676.31
2022-12-19T22:43:24.539Z,100667.81
2022-12-19T22:45:30.187Z,100667.61
2022-12-19T22:47:33.027Z,100664.77
2022-12-19T22:49:35.869Z,100664.90
2022-12-19T22:51:38.717Z,100657.25
2022-12-19T22:53:42.252Z,100648.64
2022-12-19T22:55:45.036Z,100651.83
2022-12-19T22:57:47.727Z,100669.37
2022-12-19T22:59:50.558Z,100682.33
2022-12-19T23:01:53.361Z,100688.13
2022-12-19T23:03:57.679Z,100678.70
2022-12-19T23:06:01.084Z,100672.04
2022-12-19T23:08:04.539Z,100671.00
2022-12-19T23:10:09.480Z,100672.54
2022-12-19T23:12:12.265Z,100667.65
2022-12-19T23:14:16.994Z,100667.21
2022-12-19T23:16:19.764Z,100658.42
2022-12-19T23:18:22.549Z,100652.15
2022-12-19T23:20:25.296Z,100648.23
2022-12-19T23:22:28.388Z,100647.83
2022-12-19T23:24:31.508Z,100654.09
2022-12-19T23:26:36.454Z,100661.30
2022-12-19T23:28:39.306Z,100661.50
2022-12-19T23:30:42.022Z,100655.67
2022-12-19T23:32:50.484Z,100651.92
2022-12-19T23:34:53.739Z,100642.25
2022-12-19T23:37:12.597Z,100643.89
2022-12-19T23:39:15.910Z,100646.77
2022-12-19T23:41:18.680Z,100653.67
2022-12-19T23:43:21.477Z,100654.04
2022-12-19T23:45:24.175Z,100654.31
2022-12-19T23:47:28.242Z,100654.81
2022-12-19T23:49:31.673Z,100661.13
2022-12-19T23:51:34.413Z,100661.70
2022-12-19T23:53:37.150Z,100657.48
2022-12-19T23:55:39.921Z,100650.73
2022-12-19T23:57:42.714Z,100653.40
2022-12-19T23:59:45.730Z,100650.43
